createdAt,value
2018-07-01T00:00:02.474Z,39.10
2018-07-01T00:02:31.146Z,38.90
2018-07-01T00:04:59.839Z,39.00
2018-07-01T00:07:28.600Z,39.10
2018-07-01T00:09:57.421Z,38.70
2018-07-01T00:12:26.154Z,37.60
2018-07-01T00:17:23.366Z,38.40
2018-07-01T00:22:20.448Z,39.30
2018-07-01T00:24:49.179Z,38.70
2018-07-01T00:27:17.950Z,38.80
2018-07-01T00:32:15.040Z,38.60
2018-07-01T00:34:43.777Z,38.80
2018-07-01T00:37:12.547Z,39.20
2018-07-01T00:39:42.287Z,39.70
2018-07-01T00:42:11.002Z,39.90
2018-07-01T00:44:39.785Z,40.70
2018-07-01T00:47:08.587Z,39.80
2018-07-01T00:49:37.363Z,40.30
2018-07-01T00:52:06.078Z,39.90
2018-07-01T00:54:34.819Z,40.10
2018-07-01T00:57:03.629Z,39.20
2018-07-01T00:59:32.327Z,40.20
2018-07-01T01:02:01.093Z,40.40
2018-07-01T01:04:29.844Z,40.70
2018-07-01T01:06:58.532Z,41.00
2018-07-01T01:09:27.231Z,41.50
2018-07-01T01:11:55.969Z,41.00
2018-07-01T01:14:24.632Z,41.10
2018-07-01T01:16:53.373Z,41.50
2018-07-01T01:19:22.139Z,41.40
2018-07-01T01:21:50.914Z,41.30
2018-07-01T01:24:19.662Z,41.20
2018-07-01T01:31:45.110Z,41.10
2018-07-01T01:34:13.984Z,41.00
2018-07-01T01:36:43.627Z,41.40
2018-07-01T01:39:15.682Z,41.60
2018-07-01T01:49:49.175Z,42.20
2018-07-01T01:52:39.142Z,42.20
2018-07-01T01:55:42.796Z,42.00
2018-07-01T01:58:24.143Z,42.50
2018-07-01T02:01:12.175Z,42.80
2018-07-01T02:03:47.291Z,42.40
2018-07-01T02:06:19.123Z,43.60
2018-07-01T02:08:57.105Z,43.10
2018-07-01T02:11:26.672Z,41.30
2018-07-01T02:16:34.912Z,41.90
2018-07-01T02:19:03.715Z,43.00
2018-07-01T02:24:04.514Z,43.30
2018-07-01T02:29:02.686Z,43.20
2018-07-01T02:31:31.511Z,43.00
2018-07-01T02:34:00.192Z,42.70
2018-07-01T02:36:28.900Z,42.40
2018-07-01T02:41:26.006Z,42.90
2018-07-01T02:43:54.692Z,43.00
2018-07-01T02:51:20.276Z,42.00
2018-07-01T02:58:45.657Z,41.40
2018-07-01T03:01:14.399Z,42.10
2018-07-01T03:03:43.155Z,41.70
2018-07-01T03:08:40.240Z,41.00
2018-07-01T03:13:37.343Z,41.10
2018-07-01T03:18:34.393Z,41.20
2018-07-01T03:21:03.164Z,40.60
2018-07-01T03:23:31.943Z,41.20
2018-07-01T03:28:28.989Z,41.10
2018-07-01T03:30:57.802Z,40.80
2018-07-01T03:33:26.517Z,41.00
2018-07-01T03:35:55.215Z,41.50
2018-07-01T03:38:23.931Z,41.30
2018-07-01T03:40:52.717Z,41.30
2018-07-01T03:43:21.499Z,41.50
2018-07-01T03:48:18.615Z,41.60
2018-07-01T03:53:15.694Z,41.80
2018-07-01T03:58:12.809Z,41.90
2018-07-01T04:00:41.575Z,41.40
2018-07-01T04:03:10.369Z,41.80
2018-07-01T04:05:39.153Z,42.00
2018-07-01T04:08:07.906Z,41.80
2018-07-01T04:10:36.578Z,41.90
2018-07-01T04:13:05.321Z,42.10
2018-07-01T04:15:34.028Z,42.60
2018-07-01T04:18:02.728Z,42.40
2018-07-01T04:20:31.486Z,42.50
2018-07-01T04:25:28.624Z,42.60
2018-07-01T04:27:57.380Z,42.20
2018-07-01T04:30:26.075Z,42.40
2018-07-01T04:32:54.871Z,42.80
2018-07-01T04:35:23.661Z,42.40
2018-07-01T04:42:49.085Z,42.30
2018-07-01T04:47:46.304Z,42.80
2018-07-01T04:50:14.948Z,43.10
2018-07-01T04:52:43.732Z,43.30
2018-07-01T04:55:12.583Z,43.70
2018-07-01T05:00:09.662Z,43.30
2018-07-01T05:05:06.802Z,42.80
2018-07-01T05:10:04.040Z,43.50
2018-07-01T05:12:32.726Z,43.20
2018-07-01T05:15:01.491Z,44.00
2018-07-01T05:17:30.203Z,43.60
2018-07-01T05:19:58.874Z,43.40
2018-07-01T05:24:56.015Z,43.80
2018-07-01T05:27:25.519Z,43.60
2018-07-01T05:29:54.230Z,44.30
2018-07-01T05:32:22.976Z,43.90
2018-07-01T05:34:51.571Z,43.30
2018-07-01T05:37:20.266Z,43.40
2018-07-01T05:39:48.970Z,43.40
2018-07-01T05:42:17.739Z,43.80
2018-07-01T05:47:14.811Z,43.60
2018-07-01T05:49:43.695Z,43.70
2018-07-01T05:52:12.483Z,43.50
2018-07-01T05:54:41.277Z,43.60
2018-07-01T05:57:10.175Z,43.40
2018-07-01T05:59:38.968Z,43.80
2018-07-01T06:02:07.753Z,44.10
2018-07-01T06:04:36.447Z,44.10
2018-07-01T06:07:05.237Z,44.60
2018-07-01T06:09:34.005Z,44.30
2018-07-01T06:12:02.730Z,43.20
2018-07-01T06:14:31.498Z,43.50
2018-07-01T06:17:00.332Z,43.40
2018-07-01T06:19:29.029Z,43.60
2018-07-01T06:21:57.754Z,43.00
2018-07-01T06:24:29.927Z,43.20
2018-07-01T06:26:58.564Z,43.40
2018-07-01T06:31:55.644Z,43.10
2018-07-01T06:34:24.371Z,43.20
2018-07-01T06:36:59.344Z,42.70
2018-07-01T06:39:28.003Z,42.30
2018-07-01T06:41:57.310Z,42.60
2018-07-01T06:44:26.016Z,42.40
2018-07-01T06:46:54.695Z,42.60
2018-07-01T06:49:23.451Z,42.50
2018-07-01T06:51:52.173Z,41.70
2018-07-01T06:54:20.871Z,42.20
2018-07-01T06:56:49.509Z,42.10
2018-07-01T06:59:18.123Z,42.90
2018-07-01T07:01:47.019Z,42.40
2018-07-01T07:06:43.900Z,41.50
2018-07-01T07:09:13.390Z,41.30
2018-07-01T07:14:10.823Z,42.70
2018-07-01T07:16:39.520Z,42.20
2018-07-01T07:19:08.352Z,41.70
2018-07-01T07:21:37.012Z,41.30
2018-07-01T07:24:05.768Z,41.70
2018-07-01T07:26:34.435Z,41.70
2018-07-01T07:29:03.229Z,41.20
2018-07-01T07:31:32.247Z,41.80
2018-07-01T07:34:00.878Z,41.90
2018-07-01T07:36:29.519Z,41.70
2018-07-01T07:41:26.451Z,41.00
2018-07-01T07:43:55.141Z,40.50
2018-07-01T07:46:23.866Z,40.50
2018-07-01T07:48:52.499Z,40.60
2018-07-01T07:51:21.184Z,40.30
2018-07-01T07:53:49.899Z,40.00
2018-07-01T07:56:18.567Z,39.90
2018-07-01T07:58:47.710Z,39.70
2018-07-01T08:01:16.509Z,39.40
2018-07-01T08:03:45.096Z,39.60
2018-07-01T08:06:13.895Z,39.90
2018-07-01T08:08:42.526Z,39.70
2018-07-01T08:13:39.484Z,38.90
2018-07-01T08:16:08.224Z,39.40
2018-07-01T08:18:36.938Z,39.70
2018-07-01T08:21:05.739Z,39.40
2018-07-01T08:26:02.975Z,39.80
2018-07-01T08:28:31.611Z,38.20
2018-07-01T08:33:28.511Z,39.40
2018-07-01T08:35:57.171Z,38.80
2018-07-01T08:38:25.790Z,39.00
2018-07-01T08:40:54.537Z,38.50
2018-07-01T08:45:51.502Z,37.90
2018-07-01T08:48:20.139Z,38.20
2018-07-01T08:50:48.763Z,38.40
2018-07-01T08:53:17.651Z,37.50
2018-07-01T08:55:46.343Z,37.20
2018-07-01T08:58:15.080Z,37.50
2018-07-01T09:03:11.972Z,38.10
2018-07-01T09:10:37.186Z,38.00
2018-07-01T09:13:06.023Z,38.00
2018-07-01T09:15:35.240Z,37.50
2018-07-01T09:18:04.206Z,36.80
2018-07-01T09:20:33.004Z,36.10
2018-07-01T09:23:02.923Z,36.40
2018-07-01T09:32:57.080Z,36.90
2018-07-01T09:35:25.743Z,37.80
2018-07-01T09:37:54.425Z,37.00
2018-07-01T09:40:23.156Z,35.80
2018-07-01T09:42:51.856Z,35.50
2018-07-01T09:50:17.539Z,35.00
2018-07-01T09:52:46.204Z,37.50
2018-07-01T09:57:43.239Z,36.60
2018-07-01T10:00:11.919Z,37.00
2018-07-01T10:02:41.161Z,35.50
2018-07-01T10:07:38.832Z,35.80
2018-07-01T10:10:08.104Z,34.50
2018-07-01T10:12:36.973Z,34.80
2018-07-01T10:17:34.975Z,35.80
2018-07-01T10:22:32.161Z,36.60
2018-07-01T10:25:01.234Z,33.90
2018-07-01T10:27:29.888Z,35.10
2018-07-01T10:29:58.516Z,35.50
2018-07-01T10:37:24.208Z,35.50
2018-07-01T10:47:18.457Z,33.40
2018-07-01T10:49:47.550Z,33.50
2018-07-01T10:52:16.254Z,35.10
2018-07-01T10:54:45.584Z,34.30
2018-07-01T10:57:14.286Z,32.70
2018-07-01T10:59:43.452Z,33.80
2018-07-01T11:07:10.258Z,33.10
2018-07-01T11:09:39.322Z,34.60
2018-07-01T11:12:08.841Z,34.40
2018-07-01T11:17:06.386Z,33.20
2018-07-01T11:22:04.105Z,32.90
2018-07-01T11:27:07.923Z,33.20
2018-07-01T11:32:12.491Z,30.40
2018-07-01T11:37:09.821Z,32.50
2018-07-01T11:39:38.455Z,30.30
2018-07-01T11:42:07.137Z,30.80
2018-07-01T11:47:04.100Z,30.50
2018-07-01T11:49:32.756Z,30.00
2018-07-01T11:52:01.492Z,29.20
2018-07-01T11:56:58.515Z,29.30
2018-07-01T11:59:27.175Z,29.60
2018-07-01T12:01:55.889Z,28.20
2018-07-01T12:04:25.286Z,29.60
2018-07-01T12:06:54.255Z,29.40
2018-07-01T12:09:23.016Z,28.30
2018-07-01T12:16:48.438Z,29.70
2018-07-01T12:19:17.230Z,28.50
2018-07-01T12:24:14.316Z,28.00
2018-07-01T12:26:42.971Z,27.90
2018-07-01T12:29:11.704Z,27.60
2018-07-01T12:31:40.435Z,28.30
2018-07-01T12:36:37.629Z,26.60
2018-07-01T12:39:10.089Z,25.50
2018-07-01T12:41:38.795Z,27.00
2018-07-01T12:44:07.535Z,27.50
2018-07-01T12:46:36.211Z,26.30
2018-07-01T12:49:04.995Z,26.80
2018-07-01T12:54:02.037Z,27.30
2018-07-01T12:56:30.732Z,27.00
2018-07-01T13:03:56.089Z,25.60
2018-07-01T13:06:24.792Z,26.00
2018-07-01T13:08:53.529Z,24.80
2018-07-01T13:11:22.186Z,25.40
2018-07-01T13:13:50.986Z,25.70
2018-07-01T13:16:19.727Z,25.20
2018-07-01T13:18:48.378Z,26.30
2018-07-01T13:21:17.016Z,25.30
2018-07-01T13:23:45.724Z,24.30
2018-07-01T13:26:14.535Z,24.80
2018-07-01T13:28:43.295Z,24.40
2018-07-01T13:33:40.209Z,23.50
2018-07-01T13:36:08.918Z,25.20
2018-07-01T13:38:37.592Z,24.90
2018-07-01T13:41:06.774Z,24.90
2018-07-01T13:43:35.464Z,24.90
2018-07-01T13:46:04.185Z,25.30
2018-07-01T13:48:33.243Z,24.00
2018-07-01T13:53:30.268Z,23.90
2018-07-01T13:55:59.128Z,23.10
2018-07-01T14:00:56.251Z,23.20
2018-07-01T14:03:24.893Z,23.60
2018-07-01T14:05:54.313Z,23.80
2018-07-01T14:08:23.065Z,24.40
2018-07-01T14:10:51.899Z,23.80
2018-07-01T14:13:20.565Z,23.20
2018-07-01T14:15:49.230Z,23.10
2018-07-01T14:18:17.943Z,22.60
2018-07-01T14:20:46.695Z,22.90
2018-07-01T14:23:15.355Z,23.30
2018-07-01T14:28:12.368Z,23.60
2018-07-01T14:30:41.078Z,22.50
2018-07-01T14:33:09.724Z,22.90
2018-07-01T14:35:38.492Z,24.40
2018-07-01T14:38:07.113Z,24.60
2018-07-01T14:40:35.772Z,23.60
2018-07-01T14:43:05.550Z,23.30
2018-07-01T14:45:34.377Z,23.90
2018-07-01T14:48:03.077Z,23.40
2018-07-01T14:50:31.996Z,22.70
2018-07-01T14:53:00.811Z,22.70
2018-07-01T14:55:30.149Z,22.40
2018-07-01T14:57:58.905Z,22.70
2018-07-01T15:02:56.465Z,22.80
2018-07-01T15:05:25.263Z,23.30
2018-07-01T15:07:53.993Z,23.00
2018-07-01T15:18:59.517Z,23.00
2018-07-01T15:24:28.363Z,22.80
2018-07-01T15:37:42.558Z,22.60
2018-07-01T15:49:15.953Z,21.80
2018-07-01T15:54:28.176Z,22.20
2018-07-01T15:59:30.181Z,22.20
2018-07-01T16:07:05.132Z,22.20
2018-07-01T16:09:33.903Z,22.40
2018-07-01T16:14:37.110Z,21.20
2018-07-01T16:17:14.970Z,21.90
2018-07-01T16:19:47.379Z,21.80
2018-07-01T16:22:26.707Z,20.90
2018-07-01T16:25:06.042Z,21.60
2018-07-01T16:27:36.064Z,22.10
2018-07-01T16:30:10.078Z,21.60
2018-07-01T16:32:53.470Z,21.70
2018-07-01T16:35:32.874Z,22.20
2018-07-01T16:38:14.026Z,22.20
2018-07-01T16:43:15.637Z,22.00
2018-07-01T16:45:52.660Z,21.80
2018-07-01T16:48:25.750Z,22.10
2018-07-01T16:53:47.189Z,22.30
2018-07-01T17:06:10.743Z,22.10
2018-07-01T17:13:37.708Z,21.70
2018-07-01T17:16:06.666Z,21.70
2018-07-01T17:26:01.880Z,23.00
2018-07-01T17:38:31.362Z,23.60
2018-07-01T17:41:00.573Z,23.50
2018-07-01T17:43:29.715Z,23.60
2018-07-01T17:58:28.381Z,24.80
2018-07-01T18:05:56.667Z,24.10
2018-07-01T18:10:54.177Z,24.50
2018-07-01T18:42:49.551Z,25.30
2018-07-01T18:50:43.428Z,25.90
2018-07-01T18:55:41.208Z,27.00
2018-07-01T18:58:10.469Z,27.10
2018-07-01T19:05:47.541Z,28.00
2018-07-01T19:13:24.921Z,28.60
2018-07-01T19:15:54.644Z,29.20
2018-07-01T19:18:28.746Z,29.50
2018-07-01T19:27:10.065Z,29.70
2018-07-01T19:45:48.179Z,32.30
2018-07-01T19:48:59.960Z,32.50
2018-07-01T19:51:30.068Z,32.40
2018-07-01T19:56:39.311Z,32.70
2018-07-01T19:59:09.682Z,32.30
2018-07-01T20:01:38.393Z,33.40
2018-07-01T20:04:07.709Z,32.90
